Time;durP1;ratioP1;P1;durP2;ratioP2;P2;SDS_P1;SDS_P2;PMS_P1;PMS_P2;Temp;Humidity;BMP_temperature;BMP_pressure;BME280_temperature;BME280_humidity;BME280_pressure;Samples;Min_cycle;Max_cycle;Signal;HPM_P1;HPM_P2
2023/02/05 00:01:04;;;;;;;;;12.50;12.00;;;;;-0.87;76.09;100945.34;6317032;20;2789873;-51
2023/02/05 00:03:34;;;;;;;;;14.50;9.00;;;;;-0.98;76.48;100955.84;6284001;20;2762954;-50
2023/02/05 00:06:02;;;;;;;;;18.33;13.33;;;;;-0.84;76.19;100953.31;6282648;20;2805542;-48
2023/02/05 00:08:30;;;;;;;;;15.00;8.50;;;;;-0.90;76.05;100953.25;6320355;20;2757620;-49
2023/02/05 00:10:58;;;;;;;;;13.00;11.00;;;;;-0.97;76.92;100954.09;6314348;20;2789869;-52
2023/02/05 00:13:26;;;;;;;;;8.00;8.00;;;;;-1.00;76.37;100956.69;6285451;20;2746148;-53
2023/02/05 00:15:53;;;;;;;;;11.00;11.00;;;;;-0.97;77.21;100962.00;6314693;20;2779475;-51
2023/02/05 00:18:21;;;;;;;;;11.00;11.00;;;;;-1.06;76.92;100960.19;6287288;20;2779910;-50
2023/02/05 00:20:49;;;;;;;;;15.50;12.00;;;;;-1.04;76.87;100961.09;6281621;20;2790936;-51
2023/02/05 00:23:17;;;;;;;;;10.75;10.75;;;;;-1.09;76.82;100961.94;6304241;20;1827508;-53
2023/02/05 00:25:45;;;;;;;;;15.00;8.67;;;;;-1.13;77.54;100961.91;6315899;20;3486720;-51
2023/02/05 00:28:13;;;;;;;;;12.00;8.00;;;;;-1.07;77.55;100970.75;6285484;20;2756549;-52
2023/02/05 00:30:42;;;;;;;;;13.25;8.00;;;;;-1.06;77.78;100989.16;6301275;20;1831677;-52
2023/02/05 00:33:09;;;;;;;;;11.00;9.00;;;;;-0.90;78.58;100979.59;6317367;20;3466950;-53
2023/02/05 00:35:37;;;;;;;;;12.00;12.00;;;;;-0.93;78.01;100995.41;6313273;20;2777421;-49
2023/02/05 00:38:05;;;;;;;;;13.00;11.50;;;;;-0.90;77.70;100992.78;6287618;20;2799355;-52
2023/02/05 00:40:33;;;;;;;;;9.00;9.00;;;;;-0.84;77.42;100992.84;6315259;20;2750309;-51
2023/02/05 00:43:00;;;;;;;;;15.00;11.00;;;;;-0.91;78.24;101004.22;6316928;20;2794074;-49
2023/02/05 00:45:33;;;;;;;;;16.50;9.00;;;;;-1.01;77.90;101012.94;6286731;20;2768081;-51
2023/02/05 00:48:05;;;;;;;;;9.00;9.00;;;;;-1.02;78.25;101005.91;6326642;20;1805528;-50
2023/02/05 00:50:36;;;;;;;;;14.83;12.33;;;;;-0.97;78.35;100994.53;6321948;20;1812946;-50
2023/02/05 00:53:03;;;;;;;;;13.00;11.50;;;;;-1.13;79.46;100990.91;6285779;20;2785793;-49
2023/02/05 00:55:31;;;;;;;;;12.50;8.50;;;;;-1.03;78.93;100988.31;6282212;20;2762900;-50
2023/02/05 00:58:03;;;;;;;;;15.00;12.71;;;;;-1.07;79.23;100981.28;6321740;20;1821139;-51
2023/02/05 01:00:32;;;;;;;;;12.00;12.00;;;;;-1.22;80.00;100992.56;6315009;20;2779500;-48
2023/02/05 01:03:00;;;;;;;;;8.00;8.00;;;;;-1.34;80.93;100985.47;6283992;20;3455532;-51
2023/02/05 01:05:29;;;;;;;;;17.50;11.50;;;;;-1.30;81.71;100995.16;6314013;20;2810720;-51
2023/02/05 01:07:57;;;;;;;;;12.00;12.00;;;;;-1.33;81.80;100989.88;6284480;20;2794244;-54
2023/02/05 01:10:25;;;;;;;;;14.50;13.00;;;;;-1.47;82.45;100992.41;6282678;20;2799359;-55
2023/02/05 01:12:53;;;;;;;;;18.00;15.00;;;;;-1.52;82.72;100987.97;6314319;20;2819435;-52
2023/02/05 01:15:21;;;;;;;;;15.50;12.00;;;;;-1.48;82.80;100989.72;6284051;20;2803464;-51
2023/02/05 01:17:52;;;;;;;;;14.83;13.83;;;;;-1.70;83.14;100988.66;6321960;20;1817071;-51
2023/02/05 01:20:20;;;;;;;;;11.00;10.00;;;;;-1.69;83.21;100990.41;6281096;20;2772222;-51
2023/02/05 01:22:48;;;;;;;;;18.00;11.50;;;;;-1.71;83.01;100993.06;6284943;20;2791979;-50
2023/02/05 01:25:16;;;;;;;;;15.00;11.00;;;;;-1.78;83.33;100993.88;6282588;20;2820084;-52
2023/02/05 01:27:44;;;;;;;;;14.00;11.50;;;;;-1.89;83.77;100998.16;6315389;20;2790915;-51
2023/02/05 01:30:14;;;;;;;;;11.00;10.00;;;;;-1.87;84.01;100991.13;6282953;20;2784693;-51
2023/02/05 01:32:43;;;;;;;;;15.00;10.50;;;;;-1.86;84.32;101003.44;6296297;20;1836849;-52
2023/02/05 01:35:11;;;;;;;;;12.00;10.00;;;;;-1.88;84.31;100999.91;6315463;20;2784741;-48
2023/02/05 01:37:40;;;;;;;;;13.50;11.75;;;;;-1.92;84.47;100995.44;6301316;20;1833708;-49
2023/02/05 01:40:10;;;;;;;;;14.00;11.00;;;;;-1.94;84.83;101000.72;6311643;20;2772163;-53
2023/02/05 01:42:41;;;;;;;;;11.33;10.83;;;;;-1.94;84.84;100997.22;6351994;20;1817067;-50
2023/02/05 01:45:22;;;;;;;;;12.75;10.75;;;;;-2.05;85.26;101002.38;6301414;20;1831657;-53
2023/02/05 01:47:53;;;;;;;;;10.00;10.00;;;;;-2.10;86.07;101010.19;6314739;20;2789857;-52
2023/02/05 01:50:56;;;;;;;;;14.33;7.00;;;;;-1.99;85.20;101003.28;6277251;20;3491012;-53
2023/02/05 01:53:33;;;;;;;;;14.50;11.00;;;;;-2.06;85.75;101001.44;6279481;20;2782590;-53
2023/02/05 01:56:22;;;;;;;;;16.20;16.20;;;;;-2.05;85.63;100997.09;6307087;20;2808610;-49
2023/02/05 01:59:18;;;;;;;;;17.67;15.33;;;;;-2.23;86.50;100995.13;6281750;20;3556524;-52
2023/02/05 02:01:47;;;;;;;;;11.00;7.50;;;;;-2.30;86.87;100995.91;6330142;20;1826356;-49
2023/02/05 02:04:39;;;;;;;;;17.00;13.00;;;;;-2.28;86.48;100986.31;6312819;20;2792123;-48
2023/02/05 02:07:13;;;;;;;;;15.00;10.00;;;;;-2.29;86.73;101005.56;6281044;20;2794156;-48
2023/02/05 02:09:44;;;;;;;;;13.75;10.00;;;;;-2.19;86.58;101002.19;6291593;20;1833433;-49
2023/02/05 02:12:24;;;;;;;;;14.25;8.25;;;;;-2.17;86.53;101008.34;6328662;20;1820178;-51
2023/02/05 02:15:00;;;;;;;;;15.50;11.00;;;;;-2.30;87.37;101016.97;6329148;20;1841860;-50
2023/02/05 02:17:33;;;;;;;;;16.50;13.00;;;;;-2.20;86.91;101003.06;6312908;20;2785704;-52
2023/02/05 02:20:25;;;;;;;;;12.25;11.00;;;;;-2.10;86.98;101010.19;6297582;20;1835691;-51
2023/02/05 02:23:37;;;;;;;;;16.50;13.50;;;;;-1.89;85.95;101013.94;6311904;20;2832621;-51
2023/02/05 02:26:39;;;;;;;;;37.33;27.67;;;;;-2.08;86.67;101021.63;6276879;20;3602353;-49
2023/02/05 02:29:22;;;;;;;;;16.00;16.00;;;;;-2.12;87.22;101022.44;6279892;20;2827547;-47
2023/02/05 02:32:02;;;;;;;;;18.50;15.00;;;;;-1.92;86.57;101014.78;6282684;20;2819008;-50
2023/02/05 02:34:43;;;;;;;;;14.00;11.00;;;;;-1.84;86.44;101022.75;6280426;20;2740438;-52
2023/02/05 02:37:26;;;;;;;;;14.00;10.25;;;;;-1.77;86.24;101030.72;6327909;20;1820180;-53
2023/02/05 02:40:20;;;;;;;;;10.80;10.80;;;;;-1.62;85.70;101030.00;6338260;20;2777390;-47
2023/02/05 02:43:12;;;;;;;;;13.50;11.00;;;;;-1.73;85.58;101034.28;6280637;20;2803441;-48
2023/02/05 02:45:57;;;;;;;;;25.33;16.33;;;;;-1.73;86.18;101036.91;6277512;20;2836073;-52
2023/02/05 02:48:29;;;;;;;;;17.50;14.50;;;;;-1.67;85.48;101036.97;6312192;20;2789910;-50
2023/02/05 02:51:00;;;;;;;;;13.50;11.50;;;;;-1.71;85.61;101032.56;6277319;20;2777749;-49
2023/02/05 02:53:42;;;;;;;;;17.00;14.00;;;;;-1.72;85.79;101035.16;6277988;20;2819013;-52
2023/02/05 02:56:13;;;;;;;;;20.00;17.00;;;;;-1.78;85.67;101041.25;6283771;20;2828432;-53
2023/02/05 02:58:59;;;;;;;;;20.00;15.50;;;;;-1.88;86.38;101034.13;6280013;20;2823348;-51
2023/02/05 03:01:32;;;;;;;;;16.50;15.00;;;;;-1.95;87.06;101040.16;6281266;20;2809632;-52
2023/02/05 03:04:23;;;;;;;;;13.50;13.00;;;;;-1.90;87.22;101049.00;6280672;20;2812802;-52
2023/02/05 03:06:56;;;;;;;;;13.00;13.00;;;;;-1.92;87.38;101045.47;6278521;20;2768000;-49
2023/02/05 03:09:39;;;;;;;;;23.50;13.00;;;;;-2.05;88.54;101050.59;6278193;20;2811891;-53
2023/02/05 03:12:07;;;;;;;;;16.00;14.00;;;;;-2.25;88.57;101052.09;6279095;20;2815929;-53
2023/02/05 03:14:38;;;;;;;;;14.33;10.83;;;;;-2.09;89.33;101061.06;6316890;20;1819145;-51
2023/02/05 03:17:06;;;;;;;;;17.00;14.50;;;;;-2.02;88.59;101068.19;6283277;20;2821236;-50
2023/02/05 03:19:35;;;;;;;;;35.67;20.00;;;;;-1.97;88.37;101074.38;6280481;20;3601474;-50
2023/02/05 03:22:05;;;;;;;;;16.67;14.67;;;;;-1.78;88.04;101064.94;6309460;20;3551352;-50
2023/02/05 03:24:36;;;;;;;;;18.60;14.20;;;;;-1.83;87.51;101079.78;6335164;20;2803434;-49
2023/02/05 03:27:04;;;;;;;;;20.00;15.00;;;;;-1.82;87.32;101064.03;6281265;20;2820159;-52
2023/02/05 03:29:43;;;;;;;;;19.33;18.33;;;;;-1.93;88.07;101080.56;6279492;20;3575381;-49
2023/02/05 03:32:49;;;;;;;;;21.67;17.67;;;;;-1.65;86.95;101082.63;6311235;20;3571152;-52
2023/02/05 03:35:45;;;;;;;;;30.00;30.00;;;;;-1.58;86.42;101087.09;6305912;20;2500363;-53
2023/02/05 03:39:05;;;;;;;;;57.00;46.00;;;;;-1.64;86.96;101088.78;6276666;20;2493115;-49
2023/02/05 03:42:32;;;;;;;;;47.25;36.50;;;;;-1.56;86.85;101087.97;6281840;20;3612822;-48
2023/02/05 03:45:38;;;;;;;;;17.00;17.00;;;;;-1.62;86.96;101093.19;6334871;20;2823225;-49
2023/02/05 03:49:07;;;;;;;;;21.67;14.00;;;;;-1.78;86.29;101094.78;6282437;20;3538873;-53
2023/02/05 03:51:51;;;;;;;;;21.00;17.00;;;;;-1.78;86.74;101107.06;6308415;20;2824365;-50
2023/02/05 03:54:33;;;;;;;;;19.00;15.00;;;;;-1.78;86.41;101096.53;6273472;20;2821146;-52
2023/02/05 03:57:23;;;;;;;;;12.67;12.00;;;;;-2.04;87.34;101104.97;6302792;20;1821219;-53
2023/02/05 03:59:53;;;;;;;;;15.50;11.00;;;;;-1.93;86.97;101106.88;6313820;20;2785714;-51
2023/02/05 04:02:22;;;;;;;;;20.00;14.50;;;;;-1.92;87.45;101100.72;6284296;20;2815924;-51
2023/02/05 04:04:52;;;;;;;;;15.20;13.00;;;;;-1.88;87.64;101100.78;6310124;20;2800328;-50
2023/02/05 04:07:19;;;;;;;;;16.00;14.00;;;;;-1.94;86.58;101102.47;6286250;20;2800332;-53
2023/02/05 04:09:47;;;;;;;;;18.00;16.00;;;;;-1.80;86.46;101093.88;6283717;20;2823202;-52
2023/02/05 04:12:15;;;;;;;;;22.00;14.50;;;;;-1.65;85.82;101103.69;6282280;20;2812829;-50
2023/02/05 04:14:46;;;;;;;;;20.57;15.86;;;;;-1.83;86.41;101104.38;6320821;20;1823221;-53
2023/02/05 04:17:15;;;;;;;;;20.67;17.00;;;;;-1.96;86.42;101107.72;6315412;20;3556051;-49
2023/02/05 04:19:44;;;;;;;;;18.50;14.50;;;;;-1.93;86.67;101109.50;6316345;20;2818010;-51
2023/02/05 04:22:12;;;;;;;;;16.50;13.00;;;;;-2.04;86.57;101115.50;6281072;20;2818449;-53
2023/02/05 04:24:42;;;;;;;;;17.80;15.80;;;;;-2.07;87.05;101107.59;6302936;20;2823213;-50
2023/02/05 04:27:09;;;;;;;;;18.50;11.00;;;;;-1.94;86.17;101120.91;6286683;20;2791998;-50
2023/02/05 04:29:37;;;;;;;;;18.50;15.00;;;;;-2.00;85.74;101122.59;6283903;20;2811762;-53
2023/02/05 04:32:05;;;;;;;;;13.00;13.00;;;;;-2.03;85.45;101116.38;6287041;20;2809670;-50
2023/02/05 04:34:33;;;;;;;;;12.75;12.50;;;;;-2.09;85.37;101127.72;6299204;20;1831139;-53
2023/02/05 04:37:04;;;;;;;;;15.83;11.83;;;;;-2.04;84.93;101141.81;6354249;20;1811259;-49
2023/02/05 04:39:33;;;;;;;;;13.50;10.00;;;;;-2.02;84.70;101126.06;6304516;20;1832668;-50
2023/02/05 04:42:00;;;;;;;;;12.33;9.67;;;;;-2.02;84.42;101128.69;6315153;20;3499229;-49
2023/02/05 04:44:28;;;;;;;;;5.00;5.00;;;;;-2.12;84.21;101122.41;6285801;20;3472278;-49
2023/02/05 04:46:57;;;;;;;;;8.00;8.00;;;;;-2.07;84.35;101136.53;6337206;20;1825258;-50
2023/02/05 04:49:26;;;;;;;;;9.75;9.75;;;;;-1.86;83.19;101135.03;6332648;20;1828432;-51
2023/02/05 04:51:53;;;;;;;;;7.00;7.00;;;;;-1.91;82.82;101142.00;6316753;20;3457614;-51
2023/02/05 04:54:22;;;;;;;;;7.50;7.25;;;;;-1.87;82.49;101143.78;6339245;20;1827376;-51
2023/02/05 04:56:49;;;;;;;;;10.00;8.00;;;;;-1.86;82.07;101148.19;6318320;20;2748240;-51
2023/02/05 04:59:18;;;;;;;;;10.00;8.00;;;;;-1.76;81.18;101155.34;6337993;20;1823308;-49
2023/02/05 05:01:47;;;;;;;;;11.00;7.00;;;;;-1.93;80.50;101160.38;6333922;20;1821142;-52
2023/02/05 05:04:14;;;;;;;;;11.33;7.33;;;;;-1.71;80.45;101160.66;6315369;20;3486784;-50
2023/02/05 05:06:43;;;;;;;;;10.25;8.25;;;;;-1.73;80.52;101162.41;6335489;20;1824348;-51
2023/02/05 05:09:11;;;;;;;;;8.00;8.00;;;;;-1.61;79.58;101163.41;6316336;20;2740927;-47
2023/02/05 05:11:39;;;;;;;;;9.50;7.00;;;;;-1.56;78.59;101166.97;6334387;20;1822112;-53
2023/02/05 05:14:08;;;;;;;;;8.75;7.00;;;;;-1.54;77.97;101174.91;6335027;20;1819161;-51
2023/02/05 05:16:36;;;;;;;;;11.00;7.00;;;;;-1.57;77.99;101178.41;6317257;20;2757580;-49
2023/02/05 05:19:04;;;;;;;;;6.33;6.33;;;;;-1.57;77.10;101183.66;6313677;20;3469015;-52
2023/02/05 05:21:31;;;;;;;;;14.00;10.50;;;;;-1.69;77.05;101186.13;6312740;20;2787773;-47
2023/02/05 05:24:00;;;;;;;;;10.00;7.50;;;;;-1.63;76.54;101183.59;6302840;20;1833654;-51
2023/02/05 05:26:28;;;;;;;;;6.33;6.33;;;;;-1.73;76.96;101184.34;6313177;20;3457556;-54
2023/02/05 05:28:57;;;;;;;;;8.75;5.00;;;;;-1.71;75.31;101190.53;6335749;20;1821162;-49
2023/02/05 05:31:25;;;;;;;;;8.00;5.00;;;;;-1.82;73.50;101190.38;6316033;20;3469506;-51
2023/02/05 05:33:53;;;;;;;;;8.67;7.00;;;;;-1.60;73.29;101193.28;6313356;20;3473200;-50
2023/02/05 05:36:20;;;;;;;;;5.00;5.00;;;;;-1.47;72.22;101194.31;6316470;20;2745099;-47
2023/02/05 05:38:48;;;;;;;;;7.00;7.00;;;;;-1.59;71.79;101197.69;6316100;20;3465894;-49
2023/02/05 05:44:09;;;;;;;;;10.00;8.00;;;;;-1.70;73.05;101200.19;6312779;20;3490922;-47
2023/02/05 05:46:37;;;;;;;;;8.00;4.00;;;;;-1.71;74.40;101187.88;6312965;20;3457558;-49
2023/02/05 05:49:04;;;;;;;;;5.00;5.00;;;;;-1.68;73.89;101198.44;6315010;20;3472127;-48
2023/02/05 05:51:32;;;;;;;;;10.00;9.33;;;;;-1.70;74.38;101202.81;6312508;20;3492989;-50
2023/02/05 05:54:01;;;;;;;;;8.00;7.00;;;;;-1.93;75.16;101201.63;6332688;20;1825309;-51
2023/02/05 05:56:29;;;;;;;;;12.00;10.67;;;;;-1.77;75.03;101204.47;6312789;20;3513808;-51
2023/02/05 05:58:58;;;;;;;;;17.60;11.20;;;;;-1.88;74.07;101210.47;6308633;20;2785849;-49
2023/02/05 06:01:27;;;;;;;;;16.00;14.00;;;;;-2.06;74.69;101219.84;6295953;20;1835748;-48
2023/02/05 06:03:55;;;;;;;;;14.00;13.00;;;;;-1.98;75.65;101223.47;6311099;20;2790002;-49
2023/02/05 06:06:23;;;;;;;;;10.67;7.33;;;;;-1.84;75.44;101217.56;6311195;20;3477340;-52
2023/02/05 06:08:51;;;;;;;;;5.00;5.00;;;;;-1.99;76.01;101219.09;6333927;20;1825570;-49
2023/02/05 06:11:19;;;;;;;;;16.00;14.00;;;;;-1.91;76.49;101226.22;6314123;20;2799248;-51
2023/02/05 06:13:47;;;;;;;;;20.00;13.00;;;;;-1.96;76.97;101222.63;6285881;20;2806564;-50
2023/02/05 06:16:15;;;;;;;;;20.50;13.50;;;;;-1.88;76.69;101227.13;6282952;20;2802564;-48
2023/02/05 06:18:44;;;;;;;;;16.00;13.80;;;;;-1.82;76.56;101228.97;6305583;20;2813871;-49
2023/02/05 06:21:13;;;;;;;;;13.75;8.00;;;;;-1.75;76.36;101235.22;6300568;20;1830649;-48
2023/02/05 06:23:42;;;;;;;;;10.25;8.50;;;;;-1.80;75.19;101241.28;6334051;20;1833112;-49
2023/02/05 06:26:10;;;;;;;;;14.50;11.25;;;;;-1.75;74.38;101244.00;6330342;20;1831752;-50
2023/02/05 06:28:39;;;;;;;;;9.50;8.00;;;;;-1.96;72.84;101249.84;6331543;20;1831691;-49
2023/02/05 06:31:08;;;;;;;;;10.75;6.50;;;;;-1.57;71.67;101254.75;6330386;20;1830486;-48
2023/02/05 06:33:38;;;;;;;;;11.00;7.25;;;;;-0.69;67.65;101259.28;6359107;20;2564934;-52
2023/02/05 06:36:06;;;;;;;;;6.00;5.00;;;;;-1.21;67.37;101258.75;6284532;20;3462798;-52
2023/02/05 06:38:35;;;;;;;;;5.00;5.00;;;;;-1.41;67.87;101254.97;6334000;20;1825338;-52
2023/02/05 06:41:04;;;;;;;;;10.75;6.50;;;;;-0.59;64.39;101259.38;6332068;20;1831622;-52
2023/02/05 06:43:32;;;;;;;;;8.00;8.00;;;;;-0.51;63.03;101252.41;6316981;20;3455475;-48
2023/02/05 06:45:59;;;;;;;;;11.00;11.00;;;;;-0.97;62.99;101259.88;6313564;20;2778459;-53
2023/02/05 06:48:28;;;;;;;;;11.00;8.50;;;;;-1.35;64.19;101255.91;6333865;20;1828497;-52
2023/02/05 06:50:59;;;;;;;;;17.00;14.43;;;;;-1.43;64.74;101256.69;6350800;20;1812827;-51
2023/02/05 06:53:28;;;;;;;;;9.00;6.50;;;;;-1.31;64.41;101253.34;6333929;20;1818016;-51
2023/02/05 06:56:00;;;;;;;;;6.50;6.50;;;;;-1.03;64.69;101258.03;6331170;20;1818411;-49
2023/02/05 06:58:29;;;;;;;;;19.40;16.20;;;;;-0.97;63.24;101252.84;6338510;20;2820070;-48
2023/02/05 07:00:57;;;;;;;;;5.67;5.67;;;;;-0.28;61.58;101264.03;6281529;20;3459735;-50
2023/02/05 07:03:25;;;;;;;;;6.00;5.00;;;;;0.95;57.30;101264.75;6317661;20;2748250;-53
2023/02/05 07:05:53;;;;;;;;;9.00;6.00;;;;;1.92;54.47;101259.56;6330444;20;1819186;-48
2023/02/05 07:08:21;;;;;;;;;13.00;9.00;;;;;2.62;52.70;101271.78;6309831;20;3490885;-51
2023/02/05 07:10:49;;;;;;;;;8.75;7.00;;;;;4.28;48.20;101273.31;6297164;20;1816124;-52
2023/02/05 07:13:17;;;;;;;;;10.00;7.00;;;;;4.73;44.61;101277.25;6314253;20;3487887;-48
2023/02/05 07:15:48;;;;;;;;;5.40;3.40;;;;;5.97;42.28;101276.38;6321832;20;2632616;-49
2023/02/05 07:18:16;;;;;;;;;4.00;4.00;;;;;5.00;42.10;101276.03;6284068;20;3452502;-52
2023/02/05 07:20:44;;;;;;;;;8.00;4.50;;;;;3.34;45.02;101275.84;6328896;20;1811830;-51
2023/02/05 07:23:13;;;;;;;;;6.75;5.25;;;;;3.60;45.60;101287.19;6333726;20;1823321;-52
2023/02/05 07:25:42;;;;;;;;;4.50;3.00;;;;;4.02;44.30;101287.72;6333020;20;1825298;-51
2023/02/05 07:28:10;;;;;;;;;9.50;6.00;;;;;4.17;44.14;101284.94;6330482;20;1823210;-50
2023/02/05 07:30:39;;;;;;;;;9.00;6.00;;;;;3.94;44.80;101295.75;6327453;20;1822182;-50
2023/02/05 07:33:08;;;;;;;;;6.00;3.75;;;;;3.20;44.34;101300.69;6336521;20;1823344;-53
2023/02/05 07:35:38;;;;;;;;;8.00;6.75;;;;;4.81;43.38;101306.41;6334058;20;1818994;-50
2023/02/05 07:38:06;;;;;;;;;5.00;5.00;;;;;3.97;42.55;101305.47;6339412;20;1814908;-53
2023/02/05 07:40:37;;;;;;;;;3.50;3.50;;;;;5.17;41.42;101304.22;6338819;20;1822259;-52
2023/02/05 07:43:05;;;;;;;;;8.25;6.00;;;;;1.10;48.55;101299.16;6338317;20;1824839;-49
2023/02/05 07:45:33;;;;;;;;;5.67;4.67;;;;;0.23;51.38;101290.81;6318036;20;3465883;-49
2023/02/05 07:48:01;;;;;;;;;5.00;5.00;;;;;0.31;51.88;101291.75;6319449;20;3469189;-52
2023/02/05 07:50:29;;;;;;;;;4.00;4.00;;;;;0.32;52.67;101285.59;6287134;20;3451379;-48
2023/02/05 07:52:57;;;;;;;;;4.50;4.50;;;;;0.44;51.93;101287.41;6337376;20;1825352;-53
2023/02/05 07:55:26;;;;;;;;;5.75;4.25;;;;;0.46;50.98;101290.97;6339056;20;1823244;-54
2023/02/05 07:57:54;;;;;;;;;5.00;5.00;;;;;0.80;51.25;101277.91;6319747;20;3469533;-48
2023/02/05 08:00:23;;;;;;;;;0.00;0.00;;;;;0.28;50.58;101277.66;6284872;20;2722160;-51
2023/02/05 08:02:52;;;;;;;;;6.00;5.00;;;;;0.33;50.71;101289.13;6338195;20;1825485;-50
2023/02/05 08:05:19;;;;;;;;;0.00;0.00;;;;;0.28;49.42;101288.22;6318935;20;3451356;-53
2023/02/05 08:07:50;;;;;;;;;0.00;0.00;;;;;0.35;49.25;101290.91;6359058;20;2694087;-53
2023/02/05 08:10:18;;;;;;;;;3.75;2.75;;;;;0.49;48.57;101298.03;6337154;20;1809895;-54
2023/02/05 08:12:46;;;;;;;;;4.00;4.00;;;;;0.54;48.94;101297.16;6318577;20;3451445;-51
2023/02/05 08:15:14;;;;;;;;;5.33;3.33;;;;;0.25;48.79;101304.91;6316692;20;3452366;-51
2023/02/05 08:17:42;;;;;;;;;14.00;5.00;;;;;0.63;47.74;101307.81;6308752;20;2770190;-53
2023/02/05 08:20:11;;;;;;;;;6.00;6.00;;;;;0.41;48.18;101306.78;6284675;20;3461748;-54
2023/02/05 08:22:42;;;;;;;;;6.50;5.75;;;;;0.46;48.15;101298.00;6332823;20;1821166;-54
2023/02/05 08:25:13;;;;;;;;;12.50;12.50;;;;;0.50;48.37;101292.75;6319936;20;2806942;-51
2023/02/05 08:27:42;;;;;;;;;8.67;6.33;;;;;0.63;47.37;101294.59;6286727;20;3468504;-52
2023/02/05 08:30:17;;;;;;;;;17.33;17.00;;;;;0.81;46.99;101290.25;6285507;20;3564864;-53
2023/02/05 08:32:50;;;;;;;;;1.00;1.00;;;;;0.67;46.83;101286.66;6284937;20;3455501;-51
2023/02/05 08:35:17;;;;;;;;;3.33;3.33;;;;;0.57;48.27;101285.72;6314239;20;3455500;-54
2023/02/05 08:37:45;;;;;;;;;2.67;2.67;;;;;0.26;48.02;101297.88;6313810;20;3461872;-49
2023/02/05 08:40:14;;;;;;;;;7.25;4.00;;;;;0.92;48.20;101296.44;6298457;20;1824305;-52
2023/02/05 08:42:43;;;;;;;;;3.00;3.00;;;;;1.13;46.95;101292.13;6336549;20;1825303;-51
2023/02/05 08:45:13;;;;;;;;;61.17;46.17;;;;;0.95;47.20;101301.78;6337754;20;3612174;-55
2023/02/05 08:47:41;;;;;;;;;9.00;4.67;;;;;0.93;47.89;101300.88;6284521;20;3472133;-51
2023/02/05 08:50:10;;;;;;;;;6.00;6.00;;;;;0.75;47.19;101296.38;6302565;20;1820157;-54
2023/02/05 08:52:38;;;;;;;;;6.67;4.67;;;;;0.79;45.92;101292.00;6318778;20;3461722;-50
2023/02/05 08:55:05;;;;;;;;;13.50;9.50;;;;;1.03;46.38;101291.22;6316132;20;2497217;-51
2023/02/05 08:57:33;;;;;;;;;4.00;4.00;;;;;0.77;47.07;101293.75;6286282;20;3434747;-49
2023/02/05 09:00:01;;;;;;;;;11.67;11.33;;;;;1.09;46.66;101292.13;6313983;20;3516915;-51
2023/02/05 09:02:29;;;;;;;;;12.00;9.67;;;;;0.97;46.97;101296.47;6284194;20;3495079;-52
2023/02/05 09:04:58;;;;;;;;;5.00;5.00;;;;;1.16;47.17;101298.31;6282996;20;3469057;-50
2023/02/05 09:07:38;;;;;;;;;5.00;1.00;;;;;1.06;46.04;101301.81;6286055;20;3442040;-51
2023/02/05 09:10:12;;;;;;;;;24.33;23.00;;;;;1.41;46.18;101304.53;6313816;20;3577517;-58
2023/02/05 09:12:40;;;;;;;;;0.33;0.00;;;;;1.07;45.23;101304.44;6318968;20;2729526;-60
2023/02/05 09:15:10;;;;;;;;;9.50;5.17;;;;;-146.39;100.00;62182.44;6353816;20;1804497;-66
2023/02/05 09:17:38;;;;;;;;;20.50;18.50;;;;;1.09;46.26;101302.69;6280592;20;2833613;-59
2023/02/05 09:20:07;;;;;;;;;2.00;1.00;;;;;1.27;45.75;101299.22;6285744;20;3458657;-57
2023/02/05 09:22:34;;;;;;;;;2.00;0.00;;;;;0.61;45.12;101306.91;6315792;20;3434641;-58
2023/02/05 09:25:02;;;;;;;;;2.00;2.00;;;;;1.08;46.51;101319.44;6315505;20;3460675;-58
2023/02/05 09:27:30;;;;;;;;;7.00;1.00;;;;;1.01;45.54;101311.50;6315351;20;3450655;-57
2023/02/05 09:29:58;;;;;;;;;1.67;1.67;;;;;1.52;44.91;101318.66;6314707;20;3451387;-54
2023/02/05 09:32:26;;;;;;;;;7.00;2.00;;;;;1.64;44.37;101311.66;6309832;20;3471150;-58
2023/02/05 09:34:54;;;;;;;;;14.00;5.00;;;;;1.37;44.32;101308.06;6280104;20;3510679;-54
2023/02/05 09:37:21;;;;;;;;;2.00;1.00;;;;;1.24;43.54;101303.63;6282513;20;2731682;-57
2023/02/05 09:39:50;;;;;;;;;4.25;4.25;;;;;1.04;44.01;101309.72;6330048;20;1825331;-59
2023/02/05 09:43:23;;;;;;;;;8.00;2.00;;;;;1.29;43.16;101293.91;6316735;20;3446150;-59
2023/02/05 09:46:41;;;;;;;;;1.00;1.00;;;;;1.10;42.62;101290.34;6312013;20;3442027;-58
2023/02/05 09:49:30;;;;;;;;;6.00;6.00;;;;;1.89;43.55;101288.69;6314869;20;2743028;-56
2023/02/05 09:52:17;;;;;;;;;4.00;1.00;;;;;2.09;43.06;101288.69;6313706;20;3449255;-56
2023/02/05 09:54:53;;;;;;;;;5.67;2.67;;;;;1.81;43.25;101288.69;6312121;20;3465891;-59
2023/02/05 09:57:39;;;;;;;;;183.25;156.00;;;;;1.36;43.70;101293.06;6310799;20;4473223;-56
2023/02/05 10:00:31;;;;;;;;;5.00;5.00;;;;;1.43;43.43;101292.19;6277325;20;3463897;-55
2023/02/05 10:03:30;;;;;;;;;2.67;2.00;;;;;1.01;43.99;101285.91;6277854;20;3466974;-60
2023/02/05 10:06:18;;;;;;;;;6.00;2.50;;;;;0.68;44.33;101296.34;6332588;20;1825314;-60
2023/02/05 10:09:32;;;;;;;;;4.67;1.33;;;;;1.18;43.99;101287.72;6315110;20;3447301;-59
2023/02/05 10:12:24;;;;;;;;;8.67;5.00;;;;;1.18;44.08;101287.72;6303859;20;3470245;-59
2023/02/05 10:15:25;;;;;;;;;2.50;1.00;;;;;1.77;43.93;101289.59;6300127;20;1825273;-55
2023/02/05 10:18:20;;;;;;;;;12.40;11.00;;;;;1.57;45.12;101278.09;6335663;20;2799353;-57
2023/02/05 10:21:19;;;;;;;;;10.50;10.50;;;;;2.00;44.78;101286.91;6280583;20;2789945;-56
2023/02/05 10:24:36;;;;;;;;;3.00;3.00;;;;;1.80;44.97;101289.59;6279320;20;3466997;-56
2023/02/05 10:27:31;;;;;;;;;3.00;3.00;;;;;1.22;44.62;101282.44;6329659;20;1824259;-58
2023/02/05 10:30:12;;;;;;;;;3.00;3.00;;;;;1.54;44.67;101290.44;6326778;20;1825312;-56
2023/02/05 10:33:10;;;;;;;;;5.50;5.00;;;;;1.69;44.91;101291.34;6320076;20;1825346;-56
2023/02/05 10:36:00;;;;;;;;;3.00;3.00;;;;;1.92;43.81;101292.25;6310677;20;3450368;-60
2023/02/05 10:38:35;;;;;;;;;7.50;6.50;;;;;2.24;43.81;101282.47;6324798;20;1825505;-58
2023/02/05 10:41:29;;;;;;;;;8.00;6.00;;;;;2.29;43.77;101280.69;6330307;20;1819073;-57
2023/02/05 10:44:18;;;;;;;;;10.33;9.33;;;;;2.22;43.80;101277.19;6314728;20;3487795;-55
2023/02/05 10:46:54;;;;;;;;;21.50;15.00;;;;;2.03;44.20;101281.63;6277566;20;2804477;-57
2023/02/05 10:50:15;;;;;;;;;5.50;5.50;;;;;1.63;44.65;101272.78;6297938;20;1823282;-59
2023/02/05 10:52:43;;;;;;;;;11.25;9.50;;;;;1.79;43.82;101269.31;6326526;20;1822404;-58
2023/02/05 10:55:12;;;;;;;;;6.33;5.00;;;;;1.34;44.35;101264.81;6314955;20;3463863;-51
2023/02/05 10:57:40;;;;;;;;;5.00;5.00;;;;;1.89;44.04;101265.72;6277581;20;3454529;-50
2023/02/05 11:00:21;;;;;;;;;9.00;7.50;;;;;1.92;43.32;101257.81;6327618;20;1821196;-54
2023/02/05 11:02:57;;;;;;;;;5.75;5.50;;;;;1.81;43.21;101256.91;6323706;20;1819141;-54
2023/02/05 11:05:40;;;;;;;;;9.75;8.25;;;;;1.81;44.27;101256.91;6322135;20;1818051;-49
2023/02/05 11:08:46;;;;;;;;;13.60;11.20;;;;;2.15;43.01;101256.88;6337061;20;2791104;-52
2023/02/05 11:11:39;;;;;;;;;12.00;12.00;;;;;1.90;44.82;101256.94;6281881;20;2785780;-52
2023/02/05 11:14:24;;;;;;;;;38.00;28.50;;;;;2.12;45.08;101249.81;6284519;20;2850706;-50
2023/02/05 11:16:53;;;;;;;;;11.50;10.00;;;;;2.35;44.17;101247.13;6278550;20;2776373;-48
2023/02/05 11:19:26;;;;;;;;;10.25;10.25;;;;;2.30;43.77;101250.69;6302872;20;1815649;-47
2023/02/05 11:22:01;;;;;;;;;6.00;5.00;;;;;2.07;43.14;101248.06;6334159;20;1817040;-50
2023/02/05 11:24:38;;;;;;;;;7.50;6.00;;;;;2.64;42.83;101244.38;6338704;20;1818841;-50
2023/02/05 11:27:15;;;;;;;;;11.00;10.00;;;;;2.39;43.07;101235.63;6312262;20;2782026;-52
2023/02/05 11:29:44;;;;;;;;;5.50;5.50;;;;;2.49;43.74;101240.91;6308356;20;1815382;-51
2023/02/05 11:32:36;;;;;;;;;5.50;4.00;;;;;1.84;43.00;101248.09;6319332;20;2746161;-52
2023/02/05 11:35:31;;;;;;;;;5.25;4.00;;;;;2.06;43.09;101233.94;6334562;20;1821153;-48
2023/02/05 11:38:44;;;;;;;;;9.25;3.00;;;;;2.27;44.78;101238.31;6334194;20;1825318;-47
2023/02/05 11:41:29;;;;;;;;;19.00;15.00;;;;;2.57;43.86;101241.75;6316442;20;2825408;-51